createdAt,value
2023-09-04T00:00:48.478Z,17.95
2023-09-04T00:01:48.728Z,17.95
2023-09-04T00:02:48.923Z,17.95
2023-09-04T00:03:49.091Z,17.97
2023-09-04T00:04:49.200Z,17.95
2023-09-04T00:05:49.366Z,17.98
2023-09-04T00:06:49.568Z,17.97
2023-09-04T00:07:49.747Z,17.95
2023-09-04T00:08:49.937Z,17.94
2023-09-04T00:09:50.100Z,17.94
2023-09-04T00:10:50.312Z,17.90
2023-09-04T00:11:50.451Z,17.90
2023-09-04T00:12:50.641Z,17.90
2023-09-04T00:13:50.833Z,17.90
2023-09-04T00:14:51.004Z,17.89
2023-09-04T00:15:51.153Z,17.87
2023-09-04T00:16:51.326Z,17.86
2023-09-04T00:17:51.554Z,17.86
2023-09-04T00:18:51.655Z,17.86
2023-09-04T00:19:51.822Z,17.86
2023-09-04T00:20:51.961Z,17.83
2023-09-04T00:21:52.134Z,17.83
2023-09-04T00:22:52.328Z,17.82
2023-09-04T00:23:52.498Z,17.83
2023-09-04T00:24:52.717Z,17.80
2023-09-04T00:25:52.861Z,17.79
2023-09-04T00:26:53.028Z,17.79
2023-09-04T00:27:55.234Z,17.78
2023-09-04T00:28:53.356Z,17.76
2023-09-04T00:29:53.533Z,17.74
2023-09-04T00:30:53.780Z,17.74
2023-09-04T00:31:53.971Z,17.72
2023-09-04T00:32:54.115Z,17.72
2023-09-04T00:33:54.217Z,17.74
2023-09-04T00:34:54.349Z,17.74
2023-09-04T00:35:54.521Z,17.74
2023-09-04T00:36:54.764Z,17.71
2023-09-04T00:37:54.919Z,17.71
2023-09-04T00:38:55.082Z,17.72
2023-09-04T00:39:55.266Z,17.71
2023-09-04T00:41:21.476Z,17.70
2023-09-04T00:41:55.612Z,17.71
2023-09-04T00:43:30.807Z,17.71
2023-09-04T00:43:55.945Z,17.70
2023-09-04T00:44:56.112Z,17.70
2023-09-04T00:45:56.322Z,17.71
2023-09-04T00:46:56.416Z,17.68
2023-09-04T00:47:56.655Z,17.70
2023-09-04T00:48:56.807Z,17.68
2023-09-04T00:49:56.946Z,17.68
2023-09-04T00:50:57.107Z,17.65
2023-09-04T00:51:57.312Z,17.64
2023-09-04T00:52:57.496Z,17.64
2023-09-04T00:53:57.644Z,17.63
2023-09-04T00:54:57.779Z,17.63
2023-09-04T00:55:57.969Z,17.63
2023-09-04T00:56:58.123Z,17.60
2023-09-04T00:57:58.279Z,17.59
2023-09-04T00:58:58.477Z,17.59
2023-09-04T00:59:58.623Z,17.60
2023-09-04T01:00:58.801Z,17.57
2023-09-04T01:01:58.985Z,17.59
2023-09-04T01:02:59.160Z,17.56
2023-09-04T01:03:59.311Z,17.57
2023-09-04T01:04:59.509Z,17.54
2023-09-04T01:05:59.647Z,17.54
2023-09-04T01:06:59.835Z,17.52
2023-09-04T01:08:00.022Z,17.51
2023-09-04T01:09:00.251Z,17.52
2023-09-04T01:10:00.378Z,17.49
2023-09-04T01:11:00.555Z,17.48
2023-09-04T01:12:00.743Z,17.48
2023-09-04T01:13:00.914Z,17.48
2023-09-04T01:14:01.125Z,17.46
2023-09-04T01:15:01.228Z,17.45
2023-09-04T01:16:01.445Z,17.48
2023-09-04T01:17:01.646Z,17.46
2023-09-04T01:18:01.887Z,17.48
2023-09-04T01:19:02.092Z,17.46
2023-09-04T01:20:02.143Z,17.46
2023-09-04T01:21:02.323Z,17.46
2023-09-04T01:22:02.448Z,17.45
2023-09-04T01:23:02.617Z,17.46
2023-09-04T01:24:02.871Z,17.46
2023-09-04T01:25:02.967Z,17.45
2023-09-04T01:26:03.180Z,17.48
2023-09-04T01:27:03.379Z,17.46
2023-09-04T01:28:03.513Z,17.46
2023-09-04T01:29:03.646Z,17.45
2023-09-04T01:30:03.823Z,17.45
2023-09-04T01:31:04.023Z,17.45
2023-09-04T01:32:04.300Z,17.45
2023-09-04T01:33:04.422Z,17.46
2023-09-04T01:34:04.565Z,17.48
2023-09-04T01:35:04.763Z,17.45
2023-09-04T01:36:04.946Z,17.46
2023-09-04T01:37:05.079Z,17.46
2023-09-04T01:38:05.271Z,17.46
2023-09-04T01:39:05.458Z,17.45
2023-09-04T01:40:05.624Z,17.45
2023-09-04T01:41:05.784Z,17.46
2023-09-04T01:42:05.991Z,17.46
2023-09-04T01:43:06.118Z,17.45
2023-09-04T01:44:06.321Z,17.44
2023-09-04T01:45:06.456Z,17.45
2023-09-04T01:46:06.685Z,17.44
2023-09-04T01:47:06.799Z,17.46
2023-09-04T01:48:07.104Z,17.45
2023-09-04T01:49:07.210Z,17.46
2023-09-04T01:50:07.355Z,17.46
2023-09-04T01:51:07.523Z,17.45
2023-09-04T01:52:07.666Z,17.45
2023-09-04T01:53:07.846Z,17.46
2023-09-04T01:54:08.117Z,17.44
2023-09-04T01:55:08.184Z,17.45
2023-09-04T01:56:08.343Z,17.45
2023-09-04T01:57:08.537Z,17.46
2023-09-04T01:58:08.705Z,17.45
2023-09-04T01:59:08.934Z,17.45
2023-09-04T02:00:09.057Z,17.44
2023-09-04T02:01:09.231Z,17.44
2023-09-04T02:02:09.476Z,17.45
2023-09-04T02:03:09.669Z,17.42
2023-09-04T02:04:09.738Z,17.42
2023-09-04T02:05:09.909Z,17.44
2023-09-04T02:06:10.124Z,17.44
2023-09-04T02:07:10.252Z,17.42
2023-09-04T02:08:10.464Z,17.42
2023-09-04T02:09:10.618Z,17.44
2023-09-04T02:10:10.829Z,17.42
2023-09-04T02:11:10.961Z,17.42
2023-09-04T02:12:11.152Z,17.42
2023-09-04T02:13:11.315Z,17.41
2023-09-04T02:14:11.534Z,17.41
2023-09-04T02:15:11.676Z,17.44
2023-09-04T02:16:11.910Z,17.42
2023-09-04T02:17:12.037Z,17.42
2023-09-04T02:18:12.223Z,17.41
2023-09-04T02:19:12.356Z,17.41
2023-09-04T02:20:12.613Z,17.39
2023-09-04T02:21:12.756Z,17.42
2023-09-04T02:22:12.992Z,17.42
2023-09-04T02:23:13.096Z,17.41
2023-09-04T02:24:13.316Z,17.41
2023-09-04T02:25:13.469Z,17.41
2023-09-04T02:26:13.613Z,17.41
2023-09-04T02:27:13.797Z,17.41
2023-09-04T02:28:14.029Z,17.41
2023-09-04T02:29:14.135Z,17.41
2023-09-04T02:30:14.302Z,17.41
2023-09-04T02:31:14.482Z,17.42
2023-09-04T02:32:14.659Z,17.41
2023-09-04T02:33:14.870Z,17.41
2023-09-04T02:34:15.014Z,17.42
2023-09-04T02:35:15.235Z,17.42
2023-09-04T02:36:15.387Z,17.42
2023-09-04T02:37:15.561Z,17.44
2023-09-04T02:38:15.706Z,17.44
2023-09-04T02:39:15.876Z,17.41
2023-09-04T02:40:16.048Z,17.44
2023-09-04T02:41:16.221Z,17.42
2023-09-04T02:42:16.458Z,17.42
2023-09-04T02:43:16.557Z,17.42
2023-09-04T02:44:19.604Z,17.44
2023-09-04T02:45:16.902Z,17.44
2023-09-04T02:46:17.129Z,17.42
2023-09-04T02:47:17.293Z,17.42
2023-09-04T02:48:17.535Z,17.42
2023-09-04T02:49:17.637Z,17.41
2023-09-04T02:50:17.792Z,17.42
2023-09-04T02:51:17.957Z,17.42
2023-09-04T02:52:18.126Z,17.42
2023-09-04T02:53:18.330Z,17.42
2023-09-04T02:54:18.488Z,17.42
2023-09-04T02:55:18.655Z,17.41
2023-09-04T02:56:18.868Z,17.42
2023-09-04T02:57:19.013Z,17.42
2023-09-04T02:58:19.193Z,17.42
2023-09-04T02:59:19.383Z,17.41
2023-09-04T03:00:19.610Z,17.41
2023-09-04T03:01:19.763Z,17.39
2023-09-04T03:02:19.990Z,17.39
2023-09-04T03:03:20.106Z,17.41
2023-09-04T03:04:20.278Z,17.39
2023-09-04T03:05:20.451Z,17.38
2023-09-04T03:06:20.661Z,17.39
2023-09-04T03:07:20.836Z,17.39
2023-09-04T03:08:20.975Z,17.36
2023-09-04T03:09:21.142Z,17.38
2023-09-04T03:10:21.312Z,17.41
2023-09-04T03:11:21.470Z,17.38
2023-09-04T03:12:21.700Z,17.36
2023-09-04T03:13:21.807Z,17.38
2023-09-04T03:14:21.974Z,17.36
2023-09-04T03:15:22.152Z,17.33
2023-09-04T03:16:22.409Z,17.34
2023-09-04T03:17:25.474Z,17.36
2023-09-04T03:18:22.936Z,17.34
2023-09-04T03:19:22.853Z,17.33
2023-09-04T03:20:23.019Z,17.34
2023-09-04T03:21:23.211Z,17.34
2023-09-04T03:22:23.397Z,17.31
2023-09-04T03:23:23.584Z,17.34
2023-09-04T03:24:23.726Z,17.33
2023-09-04T03:25:23.896Z,17.33
2023-09-04T03:26:24.075Z,17.33
2023-09-04T03:27:24.273Z,17.33
2023-09-04T03:28:24.617Z,17.31
2023-09-04T03:29:24.571Z,17.31
2023-09-04T03:30:24.770Z,17.33
2023-09-04T03:31:24.975Z,17.33
2023-09-04T03:32:25.118Z,17.31
2023-09-04T03:33:25.249Z,17.30
2023-09-04T03:34:25.420Z,17.31
2023-09-04T03:35:25.587Z,17.31
2023-09-04T03:36:25.776Z,17.29
2023-09-04T03:37:25.933Z,17.29
2023-09-04T03:38:26.380Z,17.30
2023-09-04T03:39:26.341Z,17.30
2023-09-04T03:40:26.449Z,17.29
2023-09-04T03:41:26.647Z,17.30
2023-09-04T03:42:26.793Z,17.29
2023-09-04T03:43:26.978Z,17.27
2023-09-04T03:44:27.134Z,17.29
2023-09-04T03:45:27.297Z,17.30
2023-09-04T03:46:27.573Z,17.29
2023-09-04T03:47:27.674Z,17.29
2023-09-04T03:48:28.305Z,17.29
2023-09-04T03:49:27.985Z,17.29
2023-09-04T03:50:28.154Z,17.27
2023-09-04T03:51:28.340Z,17.26
2023-09-04T03:52:28.494Z,17.24
2023-09-04T03:53:28.724Z,17.24
2023-09-04T03:54:28.858Z,17.22
2023-09-04T03:55:29.029Z,17.23
2023-09-04T03:56:29.202Z,17.20
2023-09-04T03:57:29.357Z,17.22
2023-09-04T03:58:29.586Z,17.19
2023-09-04T03:59:29.721Z,17.20
2023-09-04T04:00:29.925Z,17.19
2023-09-04T04:01:30.073Z,17.16
2023-09-04T04:02:30.290Z,17.19
2023-09-04T04:03:30.545Z,17.14
2023-09-04T04:04:30.586Z,17.14
2023-09-04T04:05:30.760Z,17.11
2023-09-04T04:06:30.985Z,17.11
2023-09-04T04:07:31.168Z,17.11
2023-09-04T04:08:31.337Z,17.08
2023-09-04T04:09:31.525Z,17.09
2023-09-04T04:10:31.718Z,17.06
2023-09-04T04:11:31.844Z,17.06
2023-09-04T04:12:32.038Z,17.05
2023-09-04T04:13:32.235Z,17.06
2023-09-04T04:14:32.380Z,17.06
2023-09-04T04:15:32.587Z,17.05
2023-09-04T04:16:32.855Z,17.05
2023-09-04T04:17:32.969Z,17.08
2023-09-04T04:18:33.091Z,17.04
2023-09-04T04:19:33.310Z,17.04
2023-09-04T04:20:33.420Z,17.04
2023-09-04T04:21:33.577Z,17.05
2023-09-04T04:22:33.756Z,17.05
2023-09-04T04:23:33.965Z,17.06
2023-09-04T04:24:34.101Z,17.05
2023-09-04T04:25:34.247Z,17.05
2023-09-04T04:26:34.482Z,17.04
2023-09-04T04:27:34.701Z,17.01
2023-09-04T04:28:34.797Z,16.97
2023-09-04T04:29:35.013Z,16.96
2023-09-04T04:30:35.213Z,16.96
2023-09-04T04:31:35.387Z,16.97
2023-09-04T04:32:35.552Z,16.94
2023-09-04T04:33:35.734Z,16.94
2023-09-04T04:34:35.868Z,16.94
2023-09-04T04:35:36.025Z,16.91
2023-09-04T04:36:36.204Z,16.94
2023-09-04T04:37:36.380Z,16.93
2023-09-04T04:38:36.522Z,16.94
2023-09-04T04:39:36.730Z,16.94
2023-09-04T04:40:36.897Z,16.96
2023-09-04T04:41:37.013Z,16.96
2023-09-04T04:42:37.193Z,16.94
2023-09-04T04:43:37.436Z,16.97
2023-09-04T04:44:37.579Z,16.97
2023-09-04T04:45:37.734Z,16.97
2023-09-04T04:46:37.938Z,17.01
2023-09-04T04:47:38.131Z,16.99
2023-09-04T04:48:38.253Z,17.02
2023-09-04T04:49:38.449Z,17.02
2023-09-04T04:50:38.589Z,17.01
2023-09-04T04:51:38.781Z,17.05
2023-09-04T04:52:38.949Z,17.06
2023-09-04T04:53:39.103Z,17.08
2023-09-04T04:54:39.337Z,17.09
2023-09-04T04:55:39.467Z,17.12
2023-09-04T04:56:39.633Z,17.19
2023-09-04T04:57:39.835Z,17.26
2023-09-04T04:58:40.024Z,17.30
2023-09-04T04:59:40.175Z,17.42
2023-09-04T05:00:40.344Z,17.49
2023-09-04T05:01:40.596Z,17.67
2023-09-04T05:02:40.804Z,17.83
2023-09-04T05:03:40.925Z,18.00
2023-09-04T05:04:41.182Z,18.19
2023-09-04T05:05:41.246Z,18.37
2023-09-04T05:06:41.429Z,18.56
2023-09-04T05:07:41.598Z,18.77
2023-09-04T05:08:41.764Z,18.99
2023-09-04T05:09:41.961Z,19.19
2023-09-04T05:10:42.127Z,19.34
2023-09-04T05:11:42.307Z,19.54
2023-09-04T05:12:42.494Z,19.66
2023-09-04T05:13:47.582Z,19.71
2023-09-04T05:14:42.838Z,19.77
2023-09-04T05:15:42.993Z,19.77
2023-09-04T05:16:43.226Z,19.76
2023-09-04T05:17:43.399Z,19.79
2023-09-04T05:18:43.620Z,19.77
2023-09-04T05:19:43.714Z,19.79
2023-09-04T05:20:43.946Z,19.82
2023-09-04T05:21:55.446Z,19.79
2023-09-04T05:22:45.288Z,19.77
2023-09-04T05:23:44.450Z,19.79
2023-09-04T05:24:44.647Z,19.77
2023-09-04T05:25:44.792Z,19.74
2023-09-04T05:26:45.000Z,19.73
2023-09-04T05:27:45.136Z,19.73
2023-09-04T05:28:45.363Z,19.79
2023-09-04T05:29:45.506Z,19.86
2023-09-04T05:30:45.752Z,19.92
2023-09-04T05:31:45.860Z,19.96
2023-09-04T05:32:46.103Z,20.02
2023-09-04T05:33:46.218Z,20.03
2023-09-04T05:34:46.405Z,20.03
2023-09-04T05:35:46.571Z,20.02
2023-09-04T05:36:46.725Z,20.02
2023-09-04T05:37:46.925Z,20.00
2023-09-04T05:38:47.128Z,20.00
2023-09-04T05:39:47.377Z,19.96
2023-09-04T05:40:47.459Z,19.96
2023-09-04T05:41:47.604Z,19.99
2023-09-04T05:42:47.821Z,20.00
2023-09-04T05:43:47.992Z,19.99
2023-09-04T05:44:48.166Z,19.99
2023-09-04T05:45:48.378Z,19.99
2023-09-04T05:46:48.527Z,20.00
2023-09-04T05:47:48.733Z,20.00
2023-09-04T05:48:48.868Z,19.99
2023-09-04T05:49:49.062Z,19.96
2023-09-04T05:50:49.603Z,19.96
2023-09-04T05:51:49.350Z,19.96
2023-09-04T05:52:49.525Z,19.96
2023-09-04T05:53:49.768Z,20.00
2023-09-04T05:54:49.930Z,20.00
2023-09-04T05:55:50.081Z,20.00
2023-09-04T05:56:50.450Z,20.02
2023-09-04T05:57:50.470Z,20.06
2023-09-04T05:58:50.688Z,20.03
2023-09-04T05:59:50.785Z,20.06
2023-09-04T06:00:51.071Z,20.09
2023-09-04T06:01:51.195Z,20.09
2023-09-04T06:02:51.533Z,20.07
2023-09-04T06:03:51.555Z,20.11
2023-09-04T06:04:51.723Z,20.14
2023-09-04T06:05:51.872Z,20.13
2023-09-04T06:06:52.107Z,20.13
2023-09-04T06:07:52.269Z,20.13
2023-09-04T06:08:52.400Z,20.14
2023-09-04T06:09:52.619Z,20.13
2023-09-04T06:10:52.736Z,20.14
2023-09-04T06:11:52.941Z,20.14
2023-09-04T06:12:53.100Z,20.18
2023-09-04T06:13:53.268Z,20.19
2023-09-04T06:14:53.860Z,20.21
2023-09-04T06:15:53.659Z,20.21
2023-09-04T06:16:54.034Z,20.22
2023-09-04T06:17:54.007Z,20.24
2023-09-04T06:18:54.188Z,20.25
2023-09-04T06:19:54.385Z,20.28
2023-09-04T06:20:54.497Z,20.29
2023-09-04T06:21:54.654Z,20.32
2023-09-04T06:22:54.859Z,20.34
2023-09-04T06:23:55.037Z,20.39
2023-09-04T06:24:55.205Z,20.40
2023-09-04T06:25:55.400Z,20.41
2023-09-04T06:26:55.548Z,20.47
2023-09-04T06:27:55.718Z,20.48
2023-09-04T06:28:55.895Z,20.48
2023-09-04T06:29:56.094Z,20.50
2023-09-04T06:30:56.388Z,20.50
2023-09-04T06:31:56.501Z,20.50
2023-09-04T06:32:56.686Z,20.51
2023-09-04T06:33:56.797Z,20.55
2023-09-04T06:34:56.946Z,20.56
2023-09-04T06:35:57.165Z,20.60
2023-09-04T06:36:57.371Z,20.62
2023-09-04T06:37:57.469Z,20.65
2023-09-04T06:38:57.640Z,20.66
2023-09-04T06:39:57.855Z,20.67
2023-09-04T06:40:57.964Z,20.70
2023-09-04T06:41:58.137Z,20.72
2023-09-04T06:42:58.278Z,20.75
2023-09-04T06:43:58.504Z,20.75
2023-09-04T06:44:58.604Z,20.80
2023-09-04T06:45:58.858Z,20.80
2023-09-04T06:47:00.534Z,20.84
2023-09-04T06:47:59.173Z,20.87
2023-09-04T06:48:59.355Z,20.90
2023-09-04T06:49:59.519Z,20.96
2023-09-04T06:50:59.669Z,21.05
2023-09-04T06:51:59.849Z,21.22
2023-09-04T06:53:00.044Z,21.36
2023-09-04T06:54:00.254Z,21.50
2023-09-04T06:55:00.372Z,21.64
2023-09-04T06:56:00.589Z,21.80
2023-09-04T06:57:00.739Z,21.98
2023-09-04T06:58:00.901Z,22.18
2023-09-04T06:59:01.104Z,22.36
2023-09-04T07:00:01.278Z,22.50
2023-09-04T07:01:01.438Z,22.63
2023-09-04T07:02:01.686Z,22.75
2023-09-04T07:03:01.828Z,22.87
2023-09-04T07:04:01.970Z,22.93
2023-09-04T07:05:02.162Z,22.98
2023-09-04T07:06:02.334Z,23.00
2023-09-04T07:07:02.502Z,23.02
2023-09-04T07:08:02.622Z,22.98
2023-09-04T07:09:02.851Z,22.94
2023-09-04T07:10:03.026Z,22.93
2023-09-04T07:11:03.176Z,22.98
2023-09-04T07:12:03.322Z,23.08
2023-09-04T07:13:03.560Z,23.27
2023-09-04T07:14:03.705Z,23.62
2023-09-04T07:15:03.837Z,24.02
2023-09-04T07:16:04.064Z,24.45
2023-09-04T07:17:09.121Z,24.85
2023-09-04T07:18:05.423Z,25.16
2023-09-04T07:19:04.582Z,25.33
2023-09-04T07:20:04.760Z,25.43
2023-09-04T07:21:04.929Z,25.41
2023-09-04T07:22:05.113Z,25.32
2023-09-04T07:23:18.945Z,25.16
2023-09-04T07:24:06.410Z,25.01
2023-09-04T07:25:05.634Z,24.92
2023-09-04T07:26:05.785Z,24.81
2023-09-04T07:27:05.907Z,24.70
2023-09-04T07:28:06.123Z,24.63
2023-09-04T07:29:06.281Z,24.58
2023-09-04T07:30:06.476Z,24.50
2023-09-04T07:31:06.700Z,24.42
2023-09-04T07:32:06.809Z,24.33
2023-09-04T07:33:07.016Z,24.20
2023-09-04T07:34:07.168Z,24.08
2023-09-04T07:35:07.329Z,24.03
2023-09-04T07:36:07.516Z,24.01
2023-09-04T07:37:07.728Z,24.01
2023-09-04T07:38:07.884Z,24.06
2023-09-04T07:39:08.058Z,24.11
2023-09-04T07:40:08.196Z,24.23
2023-09-04T07:41:08.380Z,24.29
2023-09-04T07:42:08.583Z,24.33
2023-09-04T07:43:08.745Z,24.36
2023-09-04T07:44:08.919Z,24.38
2023-09-04T07:45:09.093Z,24.39
2023-09-04T07:46:09.283Z,24.42
2023-09-04T07:47:09.438Z,24.38
2023-09-04T07:48:09.654Z,24.42
2023-09-04T07:49:09.766Z,24.57
2023-09-04T07:50:09.954Z,24.96
2023-09-04T07:51:23.393Z,25.59
2023-09-04T07:52:11.333Z,26.38
2023-09-04T07:53:10.519Z,27.14
2023-09-04T07:54:10.641Z,27.86
2023-09-04T07:55:10.850Z,28.57
2023-09-04T07:56:11.060Z,29.17
2023-09-04T07:57:11.212Z,29.72
2023-09-04T07:58:11.374Z,30.21
2023-09-04T07:59:11.706Z,30.66
2023-09-04T08:00:11.669Z,31.03
2023-09-04T08:01:11.885Z,31.39
2023-09-04T08:02:14.584Z,31.71
2023-09-04T08:03:12.340Z,32.00
2023-09-04T08:04:12.463Z,32.30
2023-09-04T08:05:12.595Z,32.60
2023-09-04T08:06:12.791Z,32.97
2023-09-04T08:07:12.949Z,33.31
2023-09-04T08:08:13.108Z,33.61
2023-09-04T08:09:13.281Z,33.89
2023-09-04T08:10:13.448Z,34.21
2023-09-04T08:11:13.585Z,34.50
2023-09-04T08:12:13.786Z,34.80
2023-09-04T08:13:14.188Z,35.08
2023-09-04T08:14:14.107Z,35.42
2023-09-04T08:15:14.302Z,35.68
2023-09-04T08:16:14.538Z,35.95
2023-09-04T08:17:14.669Z,36.07
2023-09-04T08:18:14.836Z,36.23
2023-09-04T08:19:15.004Z,36.43
2023-09-04T08:20:15.236Z,36.73
2023-09-04T08:21:15.434Z,37.01
2023-09-04T08:22:15.510Z,37.29
2023-09-04T08:23:15.736Z,37.49
2023-09-04T08:24:15.908Z,37.75
2023-09-04T08:25:16.052Z,37.94
2023-09-04T08:26:16.222Z,38.04
2023-09-04T08:27:16.503Z,38.14
2023-09-04T08:28:16.606Z,38.31
2023-09-04T08:29:16.772Z,38.46
2023-09-04T08:30:17.023Z,38.68
2023-09-04T08:31:17.202Z,38.83
2023-09-04T08:32:17.314Z,38.87
2023-09-04T08:33:17.518Z,38.86
2023-09-04T08:34:17.676Z,38.86
2023-09-04T08:35:17.831Z,38.91
2023-09-04T08:36:18.027Z,39.07
2023-09-04T08:37:18.220Z,39.18
2023-09-04T08:38:18.352Z,39.37
2023-09-04T08:39:18.585Z,39.52
2023-09-04T08:40:18.694Z,39.71
2023-09-04T08:41:18.892Z,39.93
2023-09-04T08:42:19.094Z,40.14
2023-09-04T08:43:19.261Z,40.31
2023-09-04T08:44:19.487Z,40.24
2023-09-04T08:45:19.606Z,40.20
2023-09-04T08:46:19.866Z,40.31
2023-09-04T08:47:19.982Z,40.50
2023-09-04T08:48:20.268Z,40.62
2023-09-04T08:49:20.314Z,40.82
2023-09-04T08:50:20.502Z,41.02
2023-09-04T08:51:20.699Z,41.15
2023-09-04T08:52:20.901Z,41.18
2023-09-04T08:53:21.025Z,41.36
2023-09-04T08:54:21.207Z,41.50
2023-09-04T08:55:21.397Z,41.71
2023-09-04T08:56:21.580Z,41.71
2023-09-04T08:57:21.812Z,41.77
2023-09-04T08:58:21.911Z,41.82
2023-09-04T08:59:22.092Z,41.78
2023-09-04T09:00:22.257Z,41.82
2023-09-04T09:01:22.462Z,41.85
2023-09-04T09:02:22.617Z,42.02
2023-09-04T09:03:22.854Z,42.16
2023-09-04T09:04:22.982Z,42.26
2023-09-04T09:05:23.093Z,42.39
2023-09-04T09:06:23.307Z,42.45
2023-09-04T09:07:23.473Z,42.72
2023-09-04T09:08:23.603Z,42.82
2023-09-04T09:09:23.785Z,42.86
2023-09-04T09:10:23.957Z,42.82
2023-09-04T09:11:24.102Z,42.74
2023-09-04T09:12:24.297Z,42.55
2023-09-04T09:13:24.745Z,42.35
2023-09-04T09:14:24.636Z,42.32
2023-09-04T09:15:24.814Z,42.43
2023-09-04T09:16:25.027Z,42.58
2023-09-04T09:17:25.181Z,42.66
2023-09-04T09:18:25.336Z,42.85
2023-09-04T09:19:25.501Z,43.01
2023-09-04T09:20:25.680Z,43.27
2023-09-04T09:21:25.943Z,43.50
2023-09-04T09:22:26.048Z,43.57
2023-09-04T09:23:26.506Z,43.54
2023-09-04T09:24:26.449Z,43.65
2023-09-04T09:25:26.615Z,43.80
2023-09-04T09:26:26.766Z,43.92
2023-09-04T09:27:26.933Z,44.17
2023-09-04T09:28:27.317Z,44.29
2023-09-04T09:29:27.254Z,44.37
2023-09-04T09:30:27.425Z,44.29
2023-09-04T09:31:27.603Z,44.26
2023-09-04T09:32:27.775Z,44.33
2023-09-04T09:33:27.913Z,44.48
2023-09-04T09:34:28.112Z,44.30
2023-09-04T09:35:28.323Z,44.14
2023-09-04T09:36:28.463Z,44.15
2023-09-04T09:37:28.636Z,44.13
2023-09-04T09:38:30.614Z,44.32
2023-09-04T09:39:28.962Z,44.49
2023-09-04T09:40:29.158Z,44.54
2023-09-04T09:41:29.338Z,44.55
2023-09-04T09:42:29.513Z,44.49
2023-09-04T09:43:29.727Z,44.33
2023-09-04T09:44:29.908Z,44.21
2023-09-04T09:45:30.118Z,44.24
2023-09-04T09:46:30.265Z,43.96
2023-09-04T09:47:30.448Z,43.74
2023-09-04T09:48:30.616Z,43.58
2023-09-04T09:49:30.820Z,43.65
2023-09-04T09:50:30.976Z,43.80
2023-09-04T09:51:31.149Z,43.69
2023-09-04T09:52:31.348Z,43.55
2023-09-04T09:53:31.519Z,43.38
2023-09-04T09:54:31.676Z,43.26
2023-09-04T09:55:31.890Z,43.20
2023-09-04T09:56:32.037Z,43.18
2023-09-04T09:57:32.209Z,43.04
2023-09-04T09:58:32.407Z,42.67
2023-09-04T09:59:32.638Z,42.24
2023-09-04T10:00:32.748Z,41.72
2023-09-04T10:01:32.993Z,41.22
2023-09-04T10:02:33.172Z,40.62
2023-09-04T10:03:33.308Z,40.12
2023-09-04T10:04:33.542Z,39.74
2023-09-04T10:05:33.625Z,39.40
2023-09-04T10:06:33.914Z,39.07
2023-09-04T10:07:33.970Z,38.74
2023-09-04T10:08:34.139Z,38.30
2023-09-04T10:09:34.335Z,37.83
2023-09-04T10:10:34.563Z,37.29
2023-09-04T10:11:34.718Z,36.73
2023-09-04T10:12:34.830Z,36.14
2023-09-04T10:13:35.049Z,35.42
2023-09-04T10:14:35.213Z,34.73
2023-09-04T10:15:35.497Z,34.13
2023-09-04T10:16:35.567Z,33.64
2023-09-04T10:17:35.829Z,33.24
2023-09-04T10:18:35.950Z,32.86
2023-09-04T10:19:36.113Z,32.52
2023-09-04T10:20:36.315Z,32.27
2023-09-04T10:21:36.440Z,32.00
2023-09-04T10:22:36.664Z,31.69
2023-09-04T10:23:36.793Z,31.27
2023-09-04T10:24:36.958Z,30.81
2023-09-04T10:25:37.158Z,30.44
2023-09-04T10:26:37.356Z,30.15
2023-09-04T10:27:37.466Z,29.94
2023-09-04T10:28:44.091Z,29.78
2023-09-04T10:29:38.897Z,29.60
2023-09-04T10:30:38.029Z,29.36
2023-09-04T10:31:38.240Z,29.14
2023-09-04T10:32:38.442Z,28.98
2023-09-04T10:33:38.605Z,28.79
2023-09-04T10:34:38.717Z,28.66
2023-09-04T10:35:38.909Z,28.56
2023-09-04T10:36:39.074Z,28.47
2023-09-04T10:37:39.229Z,28.42
2023-09-04T10:38:41.585Z,28.33
2023-09-04T10:39:39.696Z,28.30
2023-09-04T10:40:39.732Z,28.23
2023-09-04T10:41:39.937Z,28.17
2023-09-04T10:42:40.049Z,28.08
2023-09-04T10:43:40.221Z,28.07
2023-09-04T10:44:40.420Z,28.02
2023-09-04T10:45:40.655Z,27.93
2023-09-04T10:46:40.786Z,27.83
2023-09-04T10:47:41.003Z,27.75
2023-09-04T10:48:41.079Z,27.70
2023-09-04T10:49:41.250Z,27.64
2023-09-04T10:50:41.491Z,27.60
2023-09-04T10:51:41.639Z,27.59
2023-09-04T10:52:41.861Z,27.51
2023-09-04T10:53:41.979Z,27.49
2023-09-04T10:54:42.170Z,27.47
2023-09-04T10:55:42.352Z,27.45
2023-09-04T10:56:42.505Z,27.44
2023-09-04T10:57:42.704Z,27.47
2023-09-04T10:58:42.849Z,27.45
2023-09-04T10:59:43.039Z,27.44
2023-09-04T11:00:43.210Z,27.45
2023-09-04T11:01:43.390Z,27.44
2023-09-04T11:02:43.561Z,27.44
2023-09-04T11:03:43.741Z,27.44
2023-09-04T11:04:43.930Z,27.39
2023-09-04T11:05:44.097Z,27.44
2023-09-04T11:06:44.291Z,27.45
2023-09-04T11:07:44.514Z,27.40
2023-09-04T11:08:44.668Z,27.39
2023-09-04T11:09:44.845Z,27.36
2023-09-04T11:10:45.081Z,27.36
2023-09-04T11:11:45.199Z,27.37
2023-09-04T11:12:45.394Z,27.37
2023-09-04T11:13:45.526Z,27.39
2023-09-04T11:14:45.768Z,27.33
2023-09-04T11:15:45.953Z,27.30
2023-09-04T11:16:46.163Z,27.27
2023-09-04T11:17:46.292Z,27.29
2023-09-04T11:18:46.437Z,27.25
2023-09-04T11:19:46.667Z,27.27
2023-09-04T11:20:46.889Z,27.25
2023-09-04T11:21:47.011Z,27.26
2023-09-04T11:22:47.175Z,27.20
2023-09-04T11:23:48.951Z,27.14
2023-09-04T11:24:47.555Z,27.10
2023-09-04T11:25:47.844Z,27.07
2023-09-04T11:26:47.873Z,27.08
2023-09-04T11:27:48.183Z,27.14
2023-09-04T11:28:48.198Z,27.17
2023-09-04T11:29:48.357Z,27.18
2023-09-04T11:30:48.577Z,27.18
2023-09-04T11:32:02.966Z,27.21
2023-09-04T11:32:49.984Z,27.25
2023-09-04T11:33:49.191Z,27.30
2023-09-04T11:34:49.279Z,27.30
2023-09-04T11:35:49.403Z,27.32
2023-09-04T11:36:49.591Z,27.33
2023-09-04T11:37:49.773Z,27.39
2023-09-04T11:38:49.939Z,27.42
2023-09-04T11:39:50.177Z,27.40
2023-09-04T11:40:50.280Z,27.40
2023-09-04T11:41:50.439Z,27.37
2023-09-04T11:42:50.659Z,27.39
2023-09-04T11:43:50.802Z,27.39
2023-09-04T11:44:50.960Z,27.39
2023-09-04T11:45:52.162Z,27.36
2023-09-04T11:46:51.325Z,27.36
2023-09-04T11:47:51.491Z,27.36
2023-09-04T11:48:51.656Z,27.37
2023-09-04T11:49:51.833Z,27.32
2023-09-04T11:50:52.020Z,27.29
2023-09-04T11:51:52.251Z,27.22
2023-09-04T11:52:52.360Z,27.20
2023-09-04T11:53:52.597Z,27.11
2023-09-04T11:54:52.768Z,27.14
2023-09-04T11:55:52.933Z,27.07
2023-09-04T11:56:53.085Z,26.99
2023-09-04T11:57:53.269Z,26.96
2023-09-04T11:58:53.417Z,26.95
2023-09-04T11:59:53.658Z,26.99
2023-09-04T12:00:53.815Z,27.02
2023-09-04T12:01:54.017Z,27.07
2023-09-04T12:02:58.292Z,27.05
2023-09-04T12:03:54.474Z,27.05
2023-09-04T12:04:54.486Z,27.03
2023-09-04T12:05:54.694Z,27.02
2023-09-04T12:06:54.881Z,27.02
2023-09-04T12:07:55.083Z,27.07
2023-09-04T12:08:55.210Z,27.11
2023-09-04T12:09:55.476Z,27.12
2023-09-04T12:10:55.572Z,27.15
2023-09-04T12:11:55.741Z,27.25
2023-09-04T12:12:55.899Z,27.27
2023-09-04T12:13:56.179Z,27.30
2023-09-04T12:14:56.286Z,27.29
2023-09-04T12:15:56.467Z,27.29
2023-09-04T12:16:56.636Z,27.29
2023-09-04T12:17:56.770Z,27.30
2023-09-04T12:18:57.008Z,27.30
2023-09-04T12:19:57.182Z,27.36
2023-09-04T12:20:57.413Z,27.37
2023-09-04T12:21:57.550Z,27.36
2023-09-04T12:22:57.678Z,27.37
2023-09-04T12:23:57.907Z,27.37
2023-09-04T12:24:58.081Z,27.42
2023-09-04T12:25:58.291Z,27.48
2023-09-04T12:26:58.442Z,27.58
2023-09-04T12:27:58.611Z,27.59
2023-09-04T12:28:58.768Z,27.60
2023-09-04T12:29:58.943Z,27.67
2023-09-04T12:30:59.274Z,27.71
2023-09-04T12:31:59.333Z,27.70
2023-09-04T12:32:59.544Z,27.68
2023-09-04T12:33:59.688Z,27.73
2023-09-04T12:34:59.907Z,27.75
2023-09-04T12:36:00.086Z,27.71
2023-09-04T12:37:00.209Z,27.73
2023-09-04T12:38:00.339Z,27.74
2023-09-04T12:39:00.560Z,27.73
2023-09-04T12:40:00.770Z,27.71
2023-09-04T12:41:00.867Z,27.70
2023-09-04T12:42:01.033Z,27.68
2023-09-04T12:43:01.198Z,27.70
2023-09-04T12:44:01.398Z,27.74
2023-09-04T12:45:01.650Z,27.78
2023-09-04T12:46:01.747Z,27.83
2023-09-04T12:47:01.870Z,27.85
2023-09-04T12:48:02.112Z,27.89
2023-09-04T12:49:02.261Z,27.87
2023-09-04T12:50:02.504Z,27.89
2023-09-04T12:51:02.600Z,27.92
2023-09-04T12:52:02.803Z,27.96
2023-09-04T12:53:02.960Z,27.98
2023-09-04T12:54:03.134Z,28.00
2023-09-04T12:55:03.307Z,28.07